Sunday, November 19, 2017, 8:53 PM EST
Back to Local

KSFM, Sanford, Sanford Regional Airport

Location: Sanford, ME, United States Lat: 43.4
Local Time: 8:53 PM EST ( 1:53 GMT) Lon: -70.717
Time Zone: US/Eastern Elev: 242 ft

Show me the last for .
Show Decoded

2017-11-19 19:56 METAR KSFM 200056Z AUTO 28012G21KT 10SM 02/M04 A2951 RMK AO2 SLP997 T00221044
                 FZRANO $ =
2017-11-19 18:56 METAR KSFM 192356Z AUTO 30012G20KT 10SM 03/M04 A2946 RMK AO2 SLP979 60000
                 T00281039 10106 20028 51054 $ =
2017-11-19 17:56 METAR KSFM 192256Z AUTO 29014G26KT 10SM 03/M04 A2942 RMK AO2 PK WND 31027/2228
                 SLP965 T00281039 $ =
2017-11-19 16:56 METAR KSFM 192156Z AUTO 29018G25KT 10SM 04/M03 A2936 RMK AO2 PK WND 28029/2112
                 SLP946 T00391028 $ =
2017-11-19 15:56 METAR KSFM 192056Z AUTO 29018G24KT 10SM 05/M01 A2930 RMK AO2 PK WND 27030/2026
                 PRESRR SLP925 60000 T00501006 53067 $ =
2017-11-19 14:56 METAR KSFM 191956Z AUTO 29017G31KT 10SM 06/02 A2922 RMK AO2 PK WND 29031/1949
                 RAB18E50 SLP898 P0000 T00560017 $ =
2017-11-19 13:56 METAR KSFM 191856Z AUTO 28020G27KT 10SM 08/03 A2917 RMK AO2 PK WND 29030/1833
                 SLP881 T00780028 $ =
2017-11-19 12:56 METAR KSFM 191756Z AUTO 27019G32KT 10SM 09/06 A2910 RMK AO2 PK WND 26032/1754
                 RAE06 SLP857 P0001 60017 T00940061 10144 20094 53004 $ =
2017-11-19 11:56 METAR KSFM 191656Z AUTO 24013G19KT 8SM -RA 14/13 A2905 RMK AO2 SLP841 P0004
                 T01390128 $ =
2017-11-19 10:56 METAR KSFM 191556Z AUTO 20007G15KT 8SM -RA 14/13 A2906 RMK AO2 RAB26 SLP845
                 P0003 T01390133 TSNO $ =
2017-11-19 09:56 METAR KSFM 191456Z AUTO 20006KT 10SM 14/13 A2908 RMK AO2 RAE52 SLP852 P0001
                 60009 T01390133 58028 $ =
2017-11-19 08:56 METAR KSFM 191356Z AUTO VRB06KT 10SM -RA 13/13 A2913 RMK AO2 SLP866 P0002
                 T01330128 $ =
2017-11-19 07:56 METAR KSFM 191256Z AUTO 20006KT 8SM -RA 13/12 A2916 RMK AO2 SLP877 P0006
                 T01280122 $ =
2017-11-19 06:56 METAR KSFM 191156Z AUTO VRB06KT 8SM -RA 13/12 A2917 RMK AO2 SLP881 P0001 60015
                 70038 T01280122 10128 20033 56042 $ =
2017-11-19 05:56 METAR KSFM 191056Z AUTO 18009G15KT 7SM -RA 12/12 A2920 RMK AO2 PRESFR SLP890
                 P0001 T01220117 $ =
2017-11-19 04:56 METAR KSFM 190956Z AUTO VRB05KT 6SM -RA BR 11/11 A2924 RMK AO2 PRESFR SLP906
                 P0003 T01110111 $ =
2017-11-19 04:37 METAR KSFM 190937Z AUTO 19005KT 7SM -RA 10/10 A2927 RMK AO2 P0001 $ =
2017-11-19 04:29 METAR KSFM 190929Z AUTO 18004KT 2SM -RA BR 08/08 A2927 RMK AO2 P0000 $ =
2017-11-19 04:18 METAR KSFM 190918Z AUTO 00000KT 1SM -RA BR 06/06 A2928 RMK AO2 P0000 RVRNO $ =
2017-11-19 04:07 METAR KSFM 190907Z AUTO 12004KT 1 1/4SM -RA BR 05/05 A2928 RMK AO2 P0000 $ =
2017-11-19 03:56 METAR KSFM 190856Z AUTO 00000KT 2 1/2SM -RA BR 05/05 A2929 RMK AO2 SLP923 P0003
                 60010 T00500050 58046 $ =
2017-11-19 02:56 METAR KSFM 190756Z AUTO 00000KT 5SM RA BR 04/04 A2934 RMK AO2 SLP940 P0003
                 T00440039 $ =
2017-11-19 01:56 METAR KSFM 190656Z AUTO 00000KT 5SM -RA BR 04/04 A2940 RMK AO2 SLP960 P0004
                 T00390039 $ =
2017-11-19 00:56 METAR KSFM 190556Z AUTO 00000KT 4SM -RA BR 03/03 A2943 RMK AO2 SLP969 P0002
                 60023 T00330033 10033 20011 58029 $ =
2017-11-19 00:22 METAR KSFM 190522Z AUTO 00000KT 4SM -RA BR 03/03 A2946 RMK AO2 P0002 $ =
2017-11-19 00:04 METAR KSFM 190504Z AUTO 00000KT 2 1/2SM -RA BR 03/03 A2948 RMK AO2 P0001 $ =
2017-11-18 23:56 METAR KSFM 190456Z AUTO 00000KT 3SM -RA BR 03/03 A2948 RMK AO2 SLP989 P0003
                 T00330033 $ =
2017-11-18 23:44 METAR KSFM 190444Z AUTO 27003KT 2 1/2SM -RA BR 03/03 A2950 RMK AO2 P0002 $ =
2017-11-18 23:32 METAR KSFM 190432Z AUTO 00000KT 1 3/4SM -RA BR 03/03 A2950 RMK AO2 P0002 $ =
2017-11-18 22:56 METAR KSFM 190356Z AUTO 02003KT 2 1/2SM -RA BR 03/03 A2952 RMK AO2 SLP000 P0003
                 T00280028 400561094 $ =
2017-11-18 22:48 METAR KSFM 190348Z AUTO 00000KT 2 1/2SM -RA BR 03/03 A2952 RMK AO2 P0002 $ =
2017-11-18 21:56 METAR KSFM 190256Z AUTO 00000KT 3SM -RA BR 02/02 A2956 RMK AO2 SLP014 P0009
                 60015 T00220017 58041 FZRANO $ =
2017-11-18 21:48 METAR KSFM 190248Z AUTO 00000KT 1SM RA BR 02/02 A2957 RMK AO2 VIS M1/4V5 P0008
                 FZRANO RVRNO $ =
2017-11-18 20:56 METAR KSFM 190156Z AUTO 00000KT 6SM -RA BR 02/01 A2961 RMK AO2 SLP032 P0005
                 T00170011 FZRANO $ =

Support USWX by starting your Amazon purchase here.